sensor_id;sensor_type;location;lat;lon;timestamp;temperature;humidity
20091;DHT22;10205;49.678;6.560;2023-04-12T00:02:23;16.10;51.90
20091;DHT22;10205;49.678;6.560;2023-04-12T00:04:51;16.10;52.10
20091;DHT22;10205;49.678;6.560;2023-04-12T00:07:22;16.10;52.10
20091;DHT22;10205;49.678;6.560;2023-04-12T00:09:50;16.10;52.20
20091;DHT22;10205;49.678;6.560;2023-04-12T00:12:17;16.00;52.20
20091;DHT22;10205;49.678;6.560;2023-04-12T00:14:46;16.00;52.20
20091;DHT22;10205;49.678;6.560;2023-04-12T00:17:13;16.00;52.60
20091;DHT22;10205;49.678;6.560;2023-04-12T00:19:41;16.00;52.40
20091;DHT22;10205;49.678;6.560;2023-04-12T00:22:14;15.90;52.50
20091;DHT22;10205;49.678;6.560;2023-04-12T00:24:42;15.90;52.60
20091;DHT22;10205;49.678;6.560;2023-04-12T00:27:09;15.90;52.60
20091;DHT22;10205;49.678;6.560;2023-04-12T00:29:39;15.80;52.60
20091;DHT22;10205;49.678;6.560;2023-04-12T00:32:07;15.80;52.80
20091;DHT22;10205;49.678;6.560;2023-04-12T00:34:35;15.80;52.80
20091;DHT22;10205;49.678;6.560;2023-04-12T00:37:02;15.80;52.80
20091;DHT22;10205;49.678;6.560;2023-04-12T00:39:29;15.70;52.90
20091;DHT22;10205;49.678;6.560;2023-04-12T00:41:56;15.70;52.90
20091;DHT22;10205;49.678;6.560;2023-04-12T00:44:23;15.70;53.00
20091;DHT22;10205;49.678;6.560;2023-04-12T00:46:50;15.70;53.10
20091;DHT22;10205;49.678;6.560;2023-04-12T00:49:20;15.60;53.10
20091;DHT22;10205;49.678;6.560;2023-04-12T00:51:47;15.60;53.30
20091;DHT22;10205;49.678;6.560;2023-04-12T00:54:14;15.60;53.40
20091;DHT22;10205;49.678;6.560;2023-04-12T00:56:43;15.50;54.00
20091;DHT22;10205;49.678;6.560;2023-04-12T00:59:11;15.50;53.50
20091;DHT22;10205;49.678;6.560;2023-04-12T01:01:38;15.50;53.70
20091;DHT22;10205;49.678;6.560;2023-04-12T01:04:06;15.40;53.60
20091;DHT22;10205;49.678;6.560;2023-04-12T01:06:45;15.40;53.70
20091;DHT22;10205;49.678;6.560;2023-04-12T01:09:35;15.40;53.90
20091;DHT22;10205;49.678;6.560;2023-04-12T01:12:19;15.30;53.90
20091;DHT22;10205;49.678;6.560;2023-04-12T01:15:03;15.30;54.50
20091;DHT22;10205;49.678;6.560;2023-04-12T01:17:37;15.30;54.50
20091;DHT22;10205;49.678;6.560;2023-04-12T01:20:14;15.20;54.30
20091;DHT22;10205;49.678;6.560;2023-04-12T01:25:58;15.10;54.60
20091;DHT22;10205;49.678;6.560;2023-04-12T01:28:41;15.10;54.60
20091;DHT22;10205;49.678;6.560;2023-04-12T01:31:10;15.00;54.70
20091;DHT22;10205;49.678;6.560;2023-04-12T01:33:40;15.00;54.70
20091;DHT22;10205;49.678;6.560;2023-04-12T01:36:13;15.00;54.80
20091;DHT22;10205;49.678;6.560;2023-04-12T01:38:46;14.90;54.80
20091;DHT22;10205;49.678;6.560;2023-04-12T01:41:15;14.90;54.80
20091;DHT22;10205;49.678;6.560;2023-04-12T01:43:45;14.90;55.00
20091;DHT22;10205;49.678;6.560;2023-04-12T01:46:14;14.80;55.30
20091;DHT22;10205;49.678;6.560;2023-04-12T01:48:49;14.80;55.50
20091;DHT22;10205;49.678;6.560;2023-04-12T01:51:26;14.80;56.00
20091;DHT22;10205;49.678;6.560;2023-04-12T01:54:04;14.80;55.70
20091;DHT22;10205;49.678;6.560;2023-04-12T01:56:37;14.80;55.40
20091;DHT22;10205;49.678;6.560;2023-04-12T01:59:08;14.80;55.60
20091;DHT22;10205;49.678;6.560;2023-04-12T02:01:40;14.70;55.60
20091;DHT22;10205;49.678;6.560;2023-04-12T02:04:08;14.70;55.80
20091;DHT22;10205;49.678;6.560;2023-04-12T02:06:37;14.70;55.50
20091;DHT22;10205;49.678;6.560;2023-04-12T02:09:05;14.70;55.70
20091;DHT22;10205;49.678;6.560;2023-04-12T02:11:34;14.70;55.90
20091;DHT22;10205;49.678;6.560;2023-04-12T02:14:01;14.70;55.70
20091;DHT22;10205;49.678;6.560;2023-04-12T02:16:30;14.60;55.80
20091;DHT22;10205;49.678;6.560;2023-04-12T02:18:58;14.60;56.00
20091;DHT22;10205;49.678;6.560;2023-04-12T02:21:25;14.60;56.10
20091;DHT22;10205;49.678;6.560;2023-04-12T02:23:53;14.60;56.00
20091;DHT22;10205;49.678;6.560;2023-04-12T02:26:20;14.60;56.10
20091;DHT22;10205;49.678;6.560;2023-04-12T02:28:48;14.50;56.20
20091;DHT22;10205;49.678;6.560;2023-04-12T02:31:18;14.50;56.20
20091;DHT22;10205;49.678;6.560;2023-04-12T02:33:46;14.50;56.40
20091;DHT22;10205;49.678;6.560;2023-04-12T02:36:14;14.50;56.40
20091;DHT22;10205;49.678;6.560;2023-04-12T02:38:42;14.50;56.40
20091;DHT22;10205;49.678;6.560;2023-04-12T02:41:16;14.50;56.40
20091;DHT22;10205;49.678;6.560;2023-04-12T02:43:43;14.50;56.40
20091;DHT22;10205;49.678;6.560;2023-04-12T02:46:16;14.40;56.20
20091;DHT22;10205;49.678;6.560;2023-04-12T02:48:45;14.50;56.70
20091;DHT22;10205;49.678;6.560;2023-04-12T02:51:13;14.50;56.40
20091;DHT22;10205;49.678;6.560;2023-04-12T02:53:40;14.40;56.40
20091;DHT22;10205;49.678;6.560;2023-04-12T02:56:08;14.40;57.00
20091;DHT22;10205;49.678;6.560;2023-04-12T02:58:38;14.40;56.60
20091;DHT22;10205;49.678;6.560;2023-04-12T03:01:06;14.40;56.60
20091;DHT22;10205;49.678;6.560;2023-04-12T03:03:33;14.40;56.50
20091;DHT22;10205;49.678;6.560;2023-04-12T03:06:03;14.30;56.60
20091;DHT22;10205;49.678;6.560;2023-04-12T03:08:30;14.30;56.60
20091;DHT22;10205;49.678;6.560;2023-04-12T03:10:57;14.30;56.60
20091;DHT22;10205;49.678;6.560;2023-04-12T03:13:25;14.30;56.70
20091;DHT22;10205;49.678;6.560;2023-04-12T03:15:57;14.30;56.60
20091;DHT22;10205;49.678;6.560;2023-04-12T03:18:25;14.30;56.70
20091;DHT22;10205;49.678;6.560;2023-04-12T03:20:52;14.30;56.60
20091;DHT22;10205;49.678;6.560;2023-04-12T03:23:23;14.30;56.60
20091;DHT22;10205;49.678;6.560;2023-04-12T03:25:50;14.30;56.90
20091;DHT22;10205;49.678;6.560;2023-04-12T03:28:17;14.30;57.60
20091;DHT22;10205;49.678;6.560;2023-04-12T03:30:46;14.30;56.80
20091;DHT22;10205;49.678;6.560;2023-04-12T03:33:13;14.30;57.00
20091;DHT22;10205;49.678;6.560;2023-04-12T03:35:40;14.30;57.10
20091;DHT22;10205;49.678;6.560;2023-04-12T03:38:08;14.20;57.30
20091;DHT22;10205;49.678;6.560;2023-04-12T03:40:36;14.20;57.20
20091;DHT22;10205;49.678;6.560;2023-04-12T03:43:03;14.20;57.30
20091;DHT22;10205;49.678;6.560;2023-04-12T03:45:30;14.10;57.30
20091;DHT22;10205;49.678;6.560;2023-04-12T03:47:57;14.10;57.60
20091;DHT22;10205;49.678;6.560;2023-04-12T03:50:25;14.10;57.50
20091;DHT22;10205;49.678;6.560;2023-04-12T03:52:54;14.10;57.60
20091;DHT22;10205;49.678;6.560;2023-04-12T03:55:21;14.00;57.50
20091;DHT22;10205;49.678;6.560;2023-04-12T03:57:49;14.00;57.80
20091;DHT22;10205;49.678;6.560;2023-04-12T04:00:16;13.90;58.00
20091;DHT22;10205;49.678;6.560;2023-04-12T04:02:44;13.90;58.00
20091;DHT22;10205;49.678;6.560;2023-04-12T04:05:12;13.90;58.20
20091;DHT22;10205;49.678;6.560;2023-04-12T04:07:39;13.90;58.40
20091;DHT22;10205;49.678;6.560;2023-04-12T04:10:07;13.80;58.50
20091;DHT22;10205;49.678;6.560;2023-04-12T04:12:35;13.80;58.60
20091;DHT22;10205;49.678;6.560;2023-04-12T04:15:04;13.80;58.50
20091;DHT22;10205;49.678;6.560;2023-04-12T04:17:32;13.70;58.70
20091;DHT22;10205;49.678;6.560;2023-04-12T04:19:59;13.70;58.80
20091;DHT22;10205;49.678;6.560;2023-04-12T04:22:27;13.70;58.70
20091;DHT22;10205;49.678;6.560;2023-04-12T04:24:54;13.70;58.90
20091;DHT22;10205;49.678;6.560;2023-04-12T04:27:22;13.70;58.80
20091;DHT22;10205;49.678;6.560;2023-04-12T04:29:51;13.60;58.70
20091;DHT22;10205;49.678;6.560;2023-04-12T04:32:25;13.60;59.20
20091;DHT22;10205;49.678;6.560;2023-04-12T04:34:54;13.70;60.10
20091;DHT22;10205;49.678;6.560;2023-04-12T04:37:24;13.60;59.30
20091;DHT22;10205;49.678;6.560;2023-04-12T04:39:51;13.60;59.30
20091;DHT22;10205;49.678;6.560;2023-04-12T04:42:19;13.60;59.30
20091;DHT22;10205;49.678;6.560;2023-04-12T04:44:47;13.60;59.40
20091;DHT22;10205;49.678;6.560;2023-04-12T04:47:15;13.60;59.60
20091;DHT22;10205;49.678;6.560;2023-04-12T04:49:44;13.60;59.70
20091;DHT22;10205;49.678;6.560;2023-04-12T04:52:13;13.60;59.80
20091;DHT22;10205;49.678;6.560;2023-04-12T04:54:40;13.60;60.00
20091;DHT22;10205;49.678;6.560;2023-04-12T04:57:10;13.60;60.40
20091;DHT22;10205;49.678;6.560;2023-04-12T04:59:39;13.60;59.60
20091;DHT22;10205;49.678;6.560;2023-04-12T05:02:06;13.60;59.70
20091;DHT22;10205;49.678;6.560;2023-04-12T05:04:33;13.60;59.70
20091;DHT22;10205;49.678;6.560;2023-04-12T05:07:02;13.60;59.70
20091;DHT22;10205;49.678;6.560;2023-04-12T05:09:29;13.60;59.90
20091;DHT22;10205;49.678;6.560;2023-04-12T05:11:56;13.50;59.70
20091;DHT22;10205;49.678;6.560;2023-04-12T05:14:23;13.60;60.70
20091;DHT22;10205;49.678;6.560;2023-04-12T05:16:51;13.50;59.90
20091;DHT22;10205;49.678;6.560;2023-04-12T05:19:18;13.50;59.80
20091;DHT22;10205;49.678;6.560;2023-04-12T05:21:49;13.50;59.80
20091;DHT22;10205;49.678;6.560;2023-04-12T05:24:18;13.50;60.00
20091;DHT22;10205;49.678;6.560;2023-04-12T05:26:45;13.50;60.30
20091;DHT22;10205;49.678;6.560;2023-04-12T05:29:12;13.50;60.30
20091;DHT22;10205;49.678;6.560;2023-04-12T05:31:39;13.50;60.30
20091;DHT22;10205;49.678;6.560;2023-04-12T05:34:06;13.60;60.10
20091;DHT22;10205;49.678;6.560;2023-04-12T05:36:34;13.50;60.40
20091;DHT22;10205;49.678;6.560;2023-04-12T05:39:01;13.50;60.10
20091;DHT22;10205;49.678;6.560;2023-04-12T05:41:30;13.50;60.30
20091;DHT22;10205;49.678;6.560;2023-04-12T05:43:57;13.50;60.10
20091;DHT22;10205;49.678;6.560;2023-04-12T05:46:24;13.60;60.40
20091;DHT22;10205;49.678;6.560;2023-04-12T05:48:51;13.50;60.70
20091;DHT22;10205;49.678;6.560;2023-04-12T05:51:19;13.50;61.30
20091;DHT22;10205;49.678;6.560;2023-04-12T05:53:46;13.50;60.30
20091;DHT22;10205;49.678;6.560;2023-04-12T05:56:13;13.50;60.70
20091;DHT22;10205;49.678;6.560;2023-04-12T05:58:42;13.60;60.90
20091;DHT22;10205;49.678;6.560;2023-04-12T06:01:09;13.50;61.90
20091;DHT22;10205;49.678;6.560;2023-04-12T06:03:37;13.50;61.10
20091;DHT22;10205;49.678;6.560;2023-04-12T06:06:06;13.50;61.10
20091;DHT22;10205;49.678;6.560;2023-04-12T06:08:34;13.50;61.10
20091;DHT22;10205;49.678;6.560;2023-04-12T06:11:02;13.50;61.50
20091;DHT22;10205;49.678;6.560;2023-04-12T06:13:30;13.50;61.90
20091;DHT22;10205;49.678;6.560;2023-04-12T06:15:58;13.50;61.80
20091;DHT22;10205;49.678;6.560;2023-04-12T06:18:25;13.50;62.10
20091;DHT22;10205;49.678;6.560;2023-04-12T06:20:56;13.50;61.70
20091;DHT22;10205;49.678;6.560;2023-04-12T06:23:35;13.50;61.80
20091;DHT22;10205;49.678;6.560;2023-04-12T06:26:29;13.50;62.50
20091;DHT22;10205;49.678;6.560;2023-04-12T06:28:57;13.50;61.90
20091;DHT22;10205;49.678;6.560;2023-04-12T06:31:26;13.50;63.00
20091;DHT22;10205;49.678;6.560;2023-04-12T06:33:53;13.50;63.20
20091;DHT22;10205;49.678;6.560;2023-04-12T06:36:20;13.50;62.70
20091;DHT22;10205;49.678;6.560;2023-04-12T06:38:47;13.50;62.30
20091;DHT22;10205;49.678;6.560;2023-04-12T06:41:15;13.50;63.40
20091;DHT22;10205;49.678;6.560;2023-04-12T06:43:42;13.50;62.70
20091;DHT22;10205;49.678;6.560;2023-04-12T06:46:14;13.50;62.60
20091;DHT22;10205;49.678;6.560;2023-04-12T06:48:44;13.40;62.50
20091;DHT22;10205;49.678;6.560;2023-04-12T06:51:11;13.50;62.70
20091;DHT22;10205;49.678;6.560;2023-04-12T06:53:38;13.50;62.70
20091;DHT22;10205;49.678;6.560;2023-04-12T06:56:06;13.50;62.70
20091;DHT22;10205;49.678;6.560;2023-04-12T06:58:34;13.40;62.20
20091;DHT22;10205;49.678;6.560;2023-04-12T07:01:04;13.50;62.50
20091;DHT22;10205;49.678;6.560;2023-04-12T07:03:32;13.50;62.90
20091;DHT22;10205;49.678;6.560;2023-04-12T07:06:01;13.50;62.80
20091;DHT22;10205;49.678;6.560;2023-04-12T07:08:29;13.50;62.60
20091;DHT22;10205;49.678;6.560;2023-04-12T07:10:56;13.50;62.50
20091;DHT22;10205;49.678;6.560;2023-04-12T07:13:24;13.50;62.60
20091;DHT22;10205;49.678;6.560;2023-04-12T07:15:51;13.50;62.30
20091;DHT22;10205;49.678;6.560;2023-04-12T07:18:19;13.50;62.50
20091;DHT22;10205;49.678;6.560;2023-04-12T07:20:51;13.50;62.60
20091;DHT22;10205;49.678;6.560;2023-04-12T07:23:24;13.50;63.10
20091;DHT22;10205;49.678;6.560;2023-04-12T07:25:52;13.50;63.10
20091;DHT22;10205;49.678;6.560;2023-04-12T07:28:21;13.50;63.00
20091;DHT22;10205;49.678;6.560;2023-04-12T07:30:48;13.50;62.70
20091;DHT22;10205;49.678;6.560;2023-04-12T07:33:15;13.50;63.10
20091;DHT22;10205;49.678;6.560;2023-04-12T07:35:42;13.50;63.50
20091;DHT22;10205;49.678;6.560;2023-04-12T07:38:10;13.50;63.30
20091;DHT22;10205;49.678;6.560;2023-04-12T07:40:38;13.50;63.60
20091;DHT22;10205;49.678;6.560;2023-04-12T07:43:05;13.60;64.10
20091;DHT22;10205;49.678;6.560;2023-04-12T07:45:35;13.50;64.20
20091;DHT22;10205;49.678;6.560;2023-04-12T07:48:02;13.60;64.60
20091;DHT22;10205;49.678;6.560;2023-04-12T07:50:31;13.60;64.50
20091;DHT22;10205;49.678;6.560;2023-04-12T07:53:16;13.60;64.80
20091;DHT22;10205;49.678;6.560;2023-04-12T07:55:46;13.60;66.10
20091;DHT22;10205;49.678;6.560;2023-04-12T07:58:13;13.60;64.80
20091;DHT22;10205;49.678;6.560;2023-04-12T08:00:41;13.60;64.60
20091;DHT22;10205;49.678;6.560;2023-04-12T08:03:10;13.60;65.60
20091;DHT22;10205;49.678;6.560;2023-04-12T08:05:38;13.60;65.10
20091;DHT22;10205;49.678;6.560;2023-04-12T08:08:06;13.70;65.00
20091;DHT22;10205;49.678;6.560;2023-04-12T08:10:35;13.70;64.80
20091;DHT22;10205;49.678;6.560;2023-04-12T08:13:05;13.70;64.80
20091;DHT22;10205;49.678;6.560;2023-04-12T08:15:33;13.70;64.80
20091;DHT22;10205;49.678;6.560;2023-04-12T08:18:00;13.70;64.50
20091;DHT22;10205;49.678;6.560;2023-04-12T08:20:28;13.70;64.90
20091;DHT22;10205;49.678;6.560;2023-04-12T08:22:56;13.80;66.10
20091;DHT22;10205;49.678;6.560;2023-04-12T08:25:23;13.80;65.70
20091;DHT22;10205;49.678;6.560;2023-04-12T08:27:50;13.80;65.40
20091;DHT22;10205;49.678;6.560;2023-04-12T08:30:19;13.80;65.00
20091;DHT22;10205;49.678;6.560;2023-04-12T08:32:51;13.80;65.30
20091;DHT22;10205;49.678;6.560;2023-04-12T08:35:18;13.80;65.30
20091;DHT22;10205;49.678;6.560;2023-04-12T08:37:46;13.80;65.30
20091;DHT22;10205;49.678;6.560;2023-04-12T08:40:15;13.80;65.40
20091;DHT22;10205;49.678;6.560;2023-04-12T08:42:42;13.90;65.70
20091;DHT22;10205;49.678;6.560;2023-04-12T08:45:11;13.90;65.90
20091;DHT22;10205;49.678;6.560;2023-04-12T08:47:42;13.90;66.00
20091;DHT22;10205;49.678;6.560;2023-04-12T08:50:11;13.90;66.50
20091;DHT22;10205;49.678;6.560;2023-04-12T08:52:39;13.90;65.90
20091;DHT22;10205;49.678;6.560;2023-04-12T08:55:08;13.90;66.20
20091;DHT22;10205;49.678;6.560;2023-04-12T08:57:37;13.90;66.30
20091;DHT22;10205;49.678;6.560;2023-04-12T09:00:07;14.00;66.70
20091;DHT22;10205;49.678;6.560;2023-04-12T09:02:35;14.00;66.60
20091;DHT22;10205;49.678;6.560;2023-04-12T09:05:06;14.00;66.60
20091;DHT22;10205;49.678;6.560;2023-04-12T09:07:34;14.00;67.10
20091;DHT22;10205;49.678;6.560;2023-04-12T09:10:02;14.00;66.80
20091;DHT22;10205;49.678;6.560;2023-04-12T09:12:30;14.10;67.10
20091;DHT22;10205;49.678;6.560;2023-04-12T09:15:06;14.10;67.30
20091;DHT22;10205;49.678;6.560;2023-04-12T09:17:35;14.10;67.70
20091;DHT22;10205;49.678;6.560;2023-04-12T09:20:21;14.10;66.80
20091;DHT22;10205;49.678;6.560;2023-04-12T09:22:50;14.10;67.50
20091;DHT22;10205;49.678;6.560;2023-04-12T09:25:35;14.20;66.80
20091;DHT22;10205;49.678;6.560;2023-04-12T09:28:17;14.20;67.30
20091;DHT22;10205;49.678;6.560;2023-04-12T09:30:46;14.20;67.20
20091;DHT22;10205;49.678;6.560;2023-04-12T09:33:19;14.20;67.00
20091;DHT22;10205;49.678;6.560;2023-04-12T09:35:49;14.30;67.20
20091;DHT22;10205;49.678;6.560;2023-04-12T09:38:25;14.30;67.20
20091;DHT22;10205;49.678;6.560;2023-04-12T09:40:52;14.40;66.90
20091;DHT22;10205;49.678;6.560;2023-04-12T09:43:35;14.40;67.10
20091;DHT22;10205;49.678;6.560;2023-04-12T09:46:09;14.40;68.40
20091;DHT22;10205;49.678;6.560;2023-04-12T09:48:38;14.50;67.40
20091;DHT22;10205;49.678;6.560;2023-04-12T09:51:07;14.50;67.40
20091;DHT22;10205;49.678;6.560;2023-04-12T09:53:35;14.50;67.50
20091;DHT22;10205;49.678;6.560;2023-04-12T09:56:06;14.50;67.10
20091;DHT22;10205;49.678;6.560;2023-04-12T09:58:36;14.60;67.50
20091;DHT22;10205;49.678;6.560;2023-04-12T10:01:07;14.60;67.60
20091;DHT22;10205;49.678;6.560;2023-04-12T10:03:36;14.60;67.60
20091;DHT22;10205;49.678;6.560;2023-04-12T10:06:04;14.70;67.10
20091;DHT22;10205;49.678;6.560;2023-04-12T10:08:36;14.60;67.40
20091;DHT22;10205;49.678;6.560;2023-04-12T10:11:04;14.70;67.40
20091;DHT22;10205;49.678;6.560;2023-04-12T10:13:36;14.70;67.40
20091;DHT22;10205;49.678;6.560;2023-04-12T10:16:05;14.80;67.50
20091;DHT22;10205;49.678;6.560;2023-04-12T10:18:35;14.80;67.50
20091;DHT22;10205;49.678;6.560;2023-04-12T10:21:06;14.90;68.10
20091;DHT22;10205;49.678;6.560;2023-04-12T10:23:34;14.90;67.90
20091;DHT22;10205;49.678;6.560;2023-04-12T10:26:03;14.90;67.60
20091;DHT22;10205;49.678;6.560;2023-04-12T10:28:31;14.90;67.90
20091;DHT22;10205;49.678;6.560;2023-04-12T10:30:58;15.00;68.10
20091;DHT22;10205;49.678;6.560;2023-04-12T10:33:29;15.00;67.80
20091;DHT22;10205;49.678;6.560;2023-04-12T10:35:58;15.10;67.70
20091;DHT22;10205;49.678;6.560;2023-04-12T10:38:29;15.10;67.70
20091;DHT22;10205;49.678;6.560;2023-04-12T10:41:15;15.20;67.60
20091;DHT22;10205;49.678;6.560;2023-04-12T10:43:44;15.20;68.10
20091;DHT22;10205;49.678;6.560;2023-04-12T10:46:49;15.20;68.00
20091;DHT22;10205;49.678;6.560;2023-04-12T10:49:18;15.30;68.20
20091;DHT22;10205;49.678;6.560;2023-04-12T10:52:11;15.30;67.10
20091;DHT22;10205;49.678;6.560;2023-04-12T10:54:41;15.40;67.30
20091;DHT22;10205;49.678;6.560;2023-04-12T10:57:39;15.40;66.50
20091;DHT22;10205;49.678;6.560;2023-04-12T11:00:13;15.50;66.70
20091;DHT22;10205;49.678;6.560;2023-04-12T11:03:03;15.50;66.20
20091;DHT22;10205;49.678;6.560;2023-04-12T11:05:58;15.50;66.20
20091;DHT22;10205;49.678;6.560;2023-04-12T11:08:27;15.60;66.50
20091;DHT22;10205;49.678;6.560;2023-04-12T11:11:01;15.60;66.90
20091;DHT22;10205;49.678;6.560;2023-04-12T11:13:34;15.60;66.10
20091;DHT22;10205;49.678;6.560;2023-04-12T11:16:03;15.60;66.10
20091;DHT22;10205;49.678;6.560;2023-04-12T11:18:32;15.70;66.20
20091;DHT22;10205;49.678;6.560;2023-04-12T11:21:01;15.70;65.80
20091;DHT22;10205;49.678;6.560;2023-04-12T11:23:30;15.70;66.10
20091;DHT22;10205;49.678;6.560;2023-04-12T11:25:58;15.80;66.00
20091;DHT22;10205;49.678;6.560;2023-04-12T11:28:28;15.80;65.80
20091;DHT22;10205;49.678;6.560;2023-04-12T11:30:55;15.80;65.80
20091;DHT22;10205;49.678;6.560;2023-04-12T11:33:33;15.80;66.30
20091;DHT22;10205;49.678;6.560;2023-04-12T11:36:05;15.90;66.20
20091;DHT22;10205;49.678;6.560;2023-04-12T11:38:34;15.90;66.10
20091;DHT22;10205;49.678;6.560;2023-04-12T11:41:05;16.00;66.00
20091;DHT22;10205;49.678;6.560;2023-04-12T11:43:35;16.00;65.70
20091;DHT22;10205;49.678;6.560;2023-04-12T11:46:04;16.00;65.60
20091;DHT22;10205;49.678;6.560;2023-04-12T11:48:31;16.10;65.50
20091;DHT22;10205;49.678;6.560;2023-04-12T11:50:59;16.10;65.20
20091;DHT22;10205;49.678;6.560;2023-04-12T11:53:27;16.10;65.30
20091;DHT22;10205;49.678;6.560;2023-04-12T11:55:56;16.20;65.80
20091;DHT22;10205;49.678;6.560;2023-04-12T11:58:25;16.20;65.40
20091;DHT22;10205;49.678;6.560;2023-04-12T12:00:53;16.30;65.20
20091;DHT22;10205;49.678;6.560;2023-04-12T12:03:23;16.30;65.00
20091;DHT22;10205;49.678;6.560;2023-04-12T12:05:50;16.30;64.60
20091;DHT22;10205;49.678;6.560;2023-04-12T12:08:18;16.40;64.50
20091;DHT22;10205;49.678;6.560;2023-04-12T12:10:45;16.40;64.50
20091;DHT22;10205;49.678;6.560;2023-04-12T12:13:14;16.50;64.90
20091;DHT22;10205;49.678;6.560;2023-04-12T12:15:44;16.50;64.80
20091;DHT22;10205;49.678;6.560;2023-04-12T12:18:11;16.60;65.50
20091;DHT22;10205;49.678;6.560;2023-04-12T12:20:39;16.60;65.30
20091;DHT22;10205;49.678;6.560;2023-04-12T12:23:08;16.70;64.50
20091;DHT22;10205;49.678;6.560;2023-04-12T12:25:35;16.80;64.20
20091;DHT22;10205;49.678;6.560;2023-04-12T12:28:02;16.80;64.10
20091;DHT22;10205;49.678;6.560;2023-04-12T12:30:30;16.80;63.80
20091;DHT22;10205;49.678;6.560;2023-04-12T12:32:59;16.90;63.60
20091;DHT22;10205;49.678;6.560;2023-04-12T12:35:26;16.90;63.30
20091;DHT22;10205;49.678;6.560;2023-04-12T12:37:54;17.00;63.10
20091;DHT22;10205;49.678;6.560;2023-04-12T12:40:30;17.00;62.70
20091;DHT22;10205;49.678;6.560;2023-04-12T12:42:58;17.10;62.60
20091;DHT22;10205;49.678;6.560;2023-04-12T12:45:27;17.10;62.60
20091;DHT22;10205;49.678;6.560;2023-04-12T12:47:58;17.10;62.50
20091;DHT22;10205;49.678;6.560;2023-04-12T12:50:29;17.10;62.20
20091;DHT22;10205;49.678;6.560;2023-04-12T12:53:14;17.10;62.50
20091;DHT22;10205;49.678;6.560;2023-04-12T12:55:41;17.20;62.20
20091;DHT22;10205;49.678;6.560;2023-04-12T12:58:08;17.20;62.20
20091;DHT22;10205;49.678;6.560;2023-04-12T13:00:35;17.20;62.20
20091;DHT22;10205;49.678;6.560;2023-04-12T13:03:04;17.20;62.20
20091;DHT22;10205;49.678;6.560;2023-04-12T13:05:31;17.20;62.30
20091;DHT22;10205;49.678;6.560;2023-04-12T13:08:01;17.20;62.30
20091;DHT22;10205;49.678;6.560;2023-04-12T13:10:31;17.20;62.10
20091;DHT22;10205;49.678;6.560;2023-04-12T13:12:58;17.30;62.20
20091;DHT22;10205;49.678;6.560;2023-04-12T13:15:26;17.20;61.90
20091;DHT22;10205;49.678;6.560;2023-04-12T13:17:53;17.20;62.40
20091;DHT22;10205;49.678;6.560;2023-04-12T13:20:22;17.20;62.30
20091;DHT22;10205;49.678;6.560;2023-04-12T13:22:50;17.20;62.50
20091;DHT22;10205;49.678;6.560;2023-04-12T13:25:17;17.20;62.60
20091;DHT22;10205;49.678;6.560;2023-04-12T13:27:46;17.20;62.70
20091;DHT22;10205;49.678;6.560;2023-04-12T13:30:14;17.20;62.60
20091;DHT22;10205;49.678;6.560;2023-04-12T13:32:45;17.20;62.50
20091;DHT22;10205;49.678;6.560;2023-04-12T13:35:12;17.20;62.50
20091;DHT22;10205;49.678;6.560;2023-04-12T13:37:41;17.20;62.50
20091;DHT22;10205;49.678;6.560;2023-04-12T13:40:08;17.20;62.60
20091;DHT22;10205;49.678;6.560;2023-04-12T13:42:36;17.20;62.50
20091;DHT22;10205;49.678;6.560;2023-04-12T13:45:04;17.20;62.60
20091;DHT22;10205;49.678;6.560;2023-04-12T13:47:33;17.20;62.70
20091;DHT22;10205;49.678;6.560;2023-04-12T13:50:00;17.20;62.70
20091;DHT22;10205;49.678;6.560;2023-04-12T13:52:28;17.30;62.70
20091;DHT22;10205;49.678;6.560;2023-04-12T13:54:56;17.20;62.60
20091;DHT22;10205;49.678;6.560;2023-04-12T13:57:24;17.30;63.10
20091;DHT22;10205;49.678;6.560;2023-04-12T13:59:51;17.30;63.00
20091;DHT22;10205;49.678;6.560;2023-04-12T14:02:18;17.40;62.60
20091;DHT22;10205;49.678;6.560;2023-04-12T14:04:49;17.30;61.80
20091;DHT22;10205;49.678;6.560;2023-04-12T14:07:17;17.40;60.90
20091;DHT22;10205;49.678;6.560;2023-04-12T14:09:45;17.40;60.80
20091;DHT22;10205;49.678;6.560;2023-04-12T14:12:14;17.40;60.70
20091;DHT22;10205;49.678;6.560;2023-04-12T14:14:41;17.40;60.90
20091;DHT22;10205;49.678;6.560;2023-04-12T14:17:08;17.40;59.80
20091;DHT22;10205;49.678;6.560;2023-04-12T14:19:36;17.50;59.20
20091;DHT22;10205;49.678;6.560;2023-04-12T14:22:03;17.50;59.10
20091;DHT22;10205;49.678;6.560;2023-04-12T14:24:30;17.50;58.80
20091;DHT22;10205;49.678;6.560;2023-04-12T14:26:57;17.50;58.20
20091;DHT22;10205;49.678;6.560;2023-04-12T14:29:27;17.50;57.80
20091;DHT22;10205;49.678;6.560;2023-04-12T14:31:54;17.50;57.00
20091;DHT22;10205;49.678;6.560;2023-04-12T14:34:21;17.50;56.70
20091;DHT22;10205;49.678;6.560;2023-04-12T14:36:48;17.50;56.40
20091;DHT22;10205;49.678;6.560;2023-04-12T14:39:15;17.50;56.40
20091;DHT22;10205;49.678;6.560;2023-04-12T14:41:43;17.50;56.30
20091;DHT22;10205;49.678;6.560;2023-04-12T14:44:10;17.50;56.30
20091;DHT22;10205;49.678;6.560;2023-04-12T14:46:38;17.60;56.40
20091;DHT22;10205;49.678;6.560;2023-04-12T14:49:06;17.60;55.90
20091;DHT22;10205;49.678;6.560;2023-04-12T14:51:33;17.60;55.90
20091;DHT22;10205;49.678;6.560;2023-04-12T14:54:00;17.60;55.60
20091;DHT22;10205;49.678;6.560;2023-04-12T14:56:30;17.60;55.20
20091;DHT22;10205;49.678;6.560;2023-04-12T14:58:57;17.60;54.80
20091;DHT22;10205;49.678;6.560;2023-04-12T15:01:24;17.60;55.10
20091;DHT22;10205;49.678;6.560;2023-04-12T15:03:54;17.60;55.70
20091;DHT22;10205;49.678;6.560;2023-04-12T15:06:23;17.60;54.80
20091;DHT22;10205;49.678;6.560;2023-04-12T15:08:51;17.60;55.00
20091;DHT22;10205;49.678;6.560;2023-04-12T15:11:20;17.60;55.10
20091;DHT22;10205;49.678;6.560;2023-04-12T15:13:51;17.50;55.00
20091;DHT22;10205;49.678;6.560;2023-04-12T15:16:19;17.60;55.10
20091;DHT22;10205;49.678;6.560;2023-04-12T15:18:46;17.60;54.80
20091;DHT22;10205;49.678;6.560;2023-04-12T15:21:17;17.60;54.70
20091;DHT22;10205;49.678;6.560;2023-04-12T15:23:44;17.60;54.50
20091;DHT22;10205;49.678;6.560;2023-04-12T15:26:11;17.60;54.10
20091;DHT22;10205;49.678;6.560;2023-04-12T15:28:40;17.50;54.30
20091;DHT22;10205;49.678;6.560;2023-04-12T15:31:07;17.50;54.40
20091;DHT22;10205;49.678;6.560;2023-04-12T15:33:36;17.50;54.20
20091;DHT22;10205;49.678;6.560;2023-04-12T15:36:04;17.50;53.80
20091;DHT22;10205;49.678;6.560;2023-04-12T15:38:39;17.50;54.10
20091;DHT22;10205;49.678;6.560;2023-04-12T15:41:07;17.50;54.00
20091;DHT22;10205;49.678;6.560;2023-04-12T15:43:35;17.60;54.60
20091;DHT22;10205;49.678;6.560;2023-04-12T15:46:03;17.60;55.60
20091;DHT22;10205;49.678;6.560;2023-04-12T15:48:30;17.60;55.40